createdAt,value
2018-01-16T00:03:44.206Z," 7.10"
2018-01-16T00:08:39.510Z," 6.93"
2018-01-16T00:13:36.149Z," 6.99"
2018-01-16T00:18:32.442Z," 6.92"
2018-01-16T00:23:28.725Z," 6.84"
2018-01-16T00:28:24.013Z," 6.84"
2018-01-16T00:33:20.817Z," 6.82"
2018-01-16T00:38:16.438Z," 6.97"
2018-01-16T00:43:13.097Z," 7.10"
2018-01-16T00:48:08.458Z," 7.10"
2018-01-16T00:53:04.317Z," 7.20"
2018-01-16T00:58:00.043Z," 7.18"
2018-01-16T01:02:55.885Z," 7.21"
2018-01-16T01:07:51.604Z," 7.33"
2018-01-16T01:12:48.283Z," 7.17"
2018-01-16T01:17:44.063Z," 7.18"
2018-01-16T01:22:40.637Z," 7.05"
2018-01-16T01:27:36.278Z," 7.07"
2018-01-16T01:32:33.987Z," 7.02"
2018-01-16T01:37:30.155Z," 6.93"
2018-01-16T01:42:25.602Z," 6.93"
2018-01-16T01:47:21.336Z," 6.93"
2018-01-16T01:52:17.466Z," 6.93"
2018-01-16T01:57:14.121Z," 6.85"
2018-01-16T02:02:09.629Z," 6.87"
2018-01-16T02:07:05.352Z," 6.84"
2018-01-16T02:12:00.998Z," 6.82"
2018-01-16T02:16:58.691Z," 6.85"
2018-01-16T02:21:53.856Z," 6.82"
2018-01-16T02:26:50.377Z," 6.85"
2018-01-16T02:31:46.300Z," 6.85"
2018-01-16T02:36:42.003Z," 6.81"
2018-01-16T02:41:38.616Z," 6.82"
2018-01-16T02:46:34.084Z," 6.69"
2018-01-16T02:51:29.734Z," 6.63"
2018-01-16T02:56:25.418Z," 6.69"
2018-01-16T03:01:21.112Z," 6.63"
2018-01-16T03:06:17.014Z," 6.48"
2018-01-16T03:11:12.895Z," 6.54"
2018-01-16T03:16:09.461Z," 6.48"
2018-01-16T03:21:05.984Z," 6.52"
2018-01-16T03:26:01.436Z," 6.38"
2018-01-16T03:30:57.095Z," 6.36"
2018-01-16T03:35:52.736Z," 6.22"
2018-01-16T03:40:49.122Z," 6.28"
2018-01-16T03:45:44.774Z," 6.41"
2018-01-16T03:50:41.494Z," 6.44"
2018-01-16T03:55:36.866Z," 6.44"
2018-01-16T04:00:32.541Z," 6.41"
2018-01-16T04:05:28.181Z," 6.52"
2018-01-16T04:10:24.154Z," 6.49"
2018-01-16T04:15:20.945Z," 6.42"
2018-01-16T04:20:16.232Z," 6.41"
2018-01-16T04:25:13.056Z," 6.62"
2018-01-16T04:30:09.572Z," 6.59"
2018-01-16T04:35:05.389Z," 6.54"
2018-01-16T04:40:02.269Z," 6.60"
2018-01-16T04:44:57.491Z," 6.52"
2018-01-16T04:49:53.641Z," 6.51"
2018-01-16T04:54:49.371Z," 6.51"
2018-01-16T04:59:44.636Z," 6.42"
2018-01-16T05:04:40.323Z," 6.31"
2018-01-16T05:09:35.612Z," 6.19"
2018-01-16T05:14:32.528Z," 6.12"
2018-01-16T05:19:28.908Z," 6.20"
2018-01-16T05:24:24.516Z," 6.14"
2018-01-16T05:29:19.807Z," 6.12"
2018-01-16T05:34:17.451Z," 6.09"
2018-01-16T05:39:13.814Z," 6.20"
2018-01-16T05:44:09.318Z," 6.16"
2018-01-16T05:49:05.026Z," 6.05"
2018-01-16T05:54:01.788Z," 6.09"
2018-01-16T05:58:57.142Z," 6.14"
2018-01-16T06:03:52.905Z," 6.14"
2018-01-16T06:08:49.784Z," 6.08"
2018-01-16T06:13:45.177Z," 6.11"
2018-01-16T06:18:40.912Z," 6.28"
2018-01-16T06:23:36.969Z," 6.41"
2018-01-16T06:28:32.766Z," 6.45"
2018-01-16T06:33:29.393Z," 6.60"
2018-01-16T06:38:24.937Z," 6.51"
2018-01-16T06:43:20.883Z," 6.67"
2018-01-16T06:48:16.547Z," 6.64"
2018-01-16T06:53:13.594Z," 6.59"
2018-01-16T06:58:10.910Z," 6.51"
2018-01-16T07:03:07.570Z," 6.60"
2018-01-16T07:08:03.686Z," 6.64"
2018-01-16T07:12:59.492Z," 6.63"
2018-01-16T07:17:55.216Z," 6.67"
2018-01-16T07:22:50.878Z," 6.69"
2018-01-16T07:27:47.734Z," 6.64"
2018-01-16T07:32:43.326Z," 6.59"
2018-01-16T07:37:39.997Z," 6.62"
2018-01-16T07:42:36.383Z," 6.63"
2018-01-16T07:47:31.882Z," 6.52"
2018-01-16T07:52:27.882Z," 6.64"
2018-01-16T07:57:23.564Z," 6.57"
2018-01-16T08:02:19.381Z," 6.62"
2018-01-16T08:07:16.302Z," 6.70"
2018-01-16T08:12:11.611Z," 6.66"
2018-01-16T08:17:08.321Z," 6.63"
2018-01-16T08:22:03.559Z," 6.57"
2018-01-16T08:26:59.130Z," 6.52"
2018-01-16T08:31:54.589Z," 6.12"
2018-01-16T08:36:50.438Z," 5.57"
2018-01-16T08:41:45.975Z," 5.17"
2018-01-16T08:46:41.593Z," 4.99"
2018-01-16T08:51:37.432Z," 4.84"
2018-01-16T08:56:33.885Z," 4.73"
2018-01-16T09:01:30.444Z," 4.96"
2018-01-16T09:06:25.705Z," 4.89"
2018-01-16T09:11:21.398Z," 4.89"
2018-01-16T09:16:17.274Z," 4.89"
2018-01-16T09:21:13.978Z," 4.75"
2018-01-16T09:26:09.461Z," 4.67"
2018-01-16T09:31:06.177Z," 4.67"
2018-01-16T09:36:02.379Z," 4.40"
2018-01-16T09:40:57.711Z," 4.32"
2018-01-16T09:45:53.738Z," 4.23"
2018-01-16T09:50:50.249Z," 4.13"
2018-01-16T09:55:47.099Z," 4.10"
2018-01-16T10:00:42.791Z," 4.19"
2018-01-16T10:05:39.418Z," 4.10"
2018-01-16T10:10:35.906Z," 3.94"
2018-01-16T10:15:32.882Z," 4.04"
2018-01-16T10:20:28.489Z," 4.17"
2018-01-16T10:25:24.464Z," 4.26"
2018-01-16T10:30:20.089Z," 4.31"
2018-01-16T10:35:15.917Z," 4.45"
2018-01-16T10:40:12.300Z," 4.40"
2018-01-16T10:45:09.334Z," 4.52"
2018-01-16T10:50:04.415Z," 4.40"
2018-01-16T10:55:01.111Z," 4.49"
2018-01-16T10:59:56.412Z," 4.58"
2018-01-16T11:04:52.149Z," 4.73"
2018-01-16T11:09:47.982Z," 5.05"
2018-01-16T11:14:44.082Z," 5.21"
2018-01-16T11:19:39.929Z," 5.21"
2018-01-16T11:24:35.666Z," 5.28"
2018-01-16T11:29:32.574Z," 5.29"
2018-01-16T11:34:28.060Z," 5.47"
2018-01-16T11:39:25.961Z," 5.59"
2018-01-16T11:44:22.608Z," 5.50"
2018-01-16T11:49:18.144Z," 5.62"
2018-01-16T11:54:13.845Z," 5.73"
2018-01-16T11:59:09.591Z," 5.71"
2018-01-16T12:04:05.379Z," 5.68"
2018-01-16T12:09:02.173Z," 5.54"
2018-01-16T12:13:57.729Z," 5.69"
2018-01-16T12:18:53.388Z," 5.56"
2018-01-16T12:23:49.130Z," 5.69"
2018-01-16T12:28:44.946Z," 5.66"
2018-01-16T12:33:40.844Z," 5.73"
2018-01-16T12:38:37.938Z," 5.98"
2018-01-16T12:43:33.079Z," 6.09"
2018-01-16T12:48:29.001Z," 6.22"
2018-01-16T12:53:24.996Z," 6.42"
2018-01-16T12:58:22.169Z," 6.48"
2018-01-16T13:03:18.684Z," 6.64"
2018-01-16T13:08:15.520Z," 6.67"
2018-01-16T13:13:12.427Z," 6.93"
2018-01-16T13:18:07.782Z," 6.75"
2018-01-16T13:23:03.151Z," 6.52"
2018-01-16T13:27:59.712Z," 6.41"
2018-01-16T13:32:55.207Z," 6.45"
2018-01-16T13:37:51.069Z," 6.69"
2018-01-16T13:42:47.106Z," 6.82"
2018-01-16T13:47:42.669Z," 6.69"
2018-01-16T13:52:39.053Z," 5.93"
2018-01-16T13:57:34.100Z," 5.32"
2018-01-16T14:02:31.281Z," 5.10"
2018-01-16T14:07:27.546Z," 4.84"
2018-01-16T14:12:23.110Z," 4.92"
2018-01-16T14:17:19.862Z," 4.82"
2018-01-16T14:22:15.746Z," 4.92"
2018-01-16T14:27:13.559Z," 4.73"
2018-01-16T14:32:10.743Z," 4.70"
2018-01-16T14:37:05.549Z," 4.68"
2018-01-16T14:42:01.079Z," 4.58"
2018-01-16T14:46:57.702Z," 4.71"
2018-01-16T14:51:53.160Z," 4.70"
2018-01-16T14:56:50.393Z," 4.71"
2018-01-16T15:01:45.836Z," 4.89"
2018-01-16T15:06:43.349Z," 4.94"
2018-01-16T15:11:38.269Z," 4.87"
2018-01-16T15:16:34.151Z," 4.92"
2018-01-16T15:21:30.154Z," 5.00"
2018-01-16T15:26:25.738Z," 5.07"
2018-01-16T15:31:21.620Z," 5.00"
2018-01-16T15:36:17.245Z," 5.07"
2018-01-16T15:41:13.016Z," 4.99"
2018-01-16T15:46:10.434Z," 4.89"
2018-01-16T15:51:06.884Z," 4.93"
2018-01-16T15:56:02.201Z," 4.94"
2018-01-16T16:00:57.890Z," 4.96"
2018-01-16T16:05:54.533Z," 4.84"
2018-01-16T16:10:49.871Z," 4.68"
2018-01-16T16:15:46.312Z," 4.68"
2018-01-16T16:20:42.350Z," 4.41"
2018-01-16T16:25:37.831Z," 4.49"
2018-01-16T16:30:35.610Z," 4.52"
2018-01-16T16:35:31.248Z," 4.49"
2018-01-16T16:40:26.966Z," 4.50"
2018-01-16T16:45:23.780Z," 4.40"
2018-01-16T16:50:20.186Z," 4.56"
2018-01-16T16:55:16.525Z," 4.45"
2018-01-16T17:00:11.447Z," 4.41"
2018-01-16T17:05:10.623Z," 4.48"
2018-01-16T17:10:06.705Z," 4.41"
2018-01-16T17:15:02.027Z," 4.48"
2018-01-16T17:19:57.357Z," 4.38"
2018-01-16T17:24:53.338Z," 4.37"
2018-01-16T17:29:48.903Z," 4.32"
2018-01-16T17:34:45.498Z," 4.22"
2018-01-16T17:39:40.996Z," 4.22"
2018-01-16T17:44:37.785Z," 4.24"
2018-01-16T17:49:34.161Z," 4.35"
2018-01-16T17:54:30.733Z," 4.42"
2018-01-16T17:59:26.983Z," 4.50"
2018-01-16T18:04:23.014Z," 4.42"
2018-01-16T18:09:19.014Z," 4.13"
2018-01-16T18:14:14.671Z," 4.01"
2018-01-16T18:19:11.264Z," 3.96"
2018-01-16T18:24:06.609Z," 3.96"
2018-01-16T18:29:02.960Z," 3.91"
2018-01-16T18:33:59.397Z," 3.81"
2018-01-16T18:38:55.872Z," 3.80"
2018-01-16T18:43:51.585Z," 3.73"
2018-01-16T18:48:47.251Z," 3.70"
2018-01-16T18:53:43.877Z," 3.65"
2018-01-16T18:58:39.528Z," 3.69"
2018-01-16T19:03:35.056Z," 3.48"
2018-01-16T19:08:31.095Z," 3.56"
2018-01-16T19:13:28.677Z," 3.59"
2018-01-16T19:18:24.757Z," 3.53"
2018-01-16T19:23:20.752Z," 3.53"
2018-01-16T19:28:17.341Z," 3.51"
2018-01-16T19:33:12.852Z," 3.50"
2018-01-16T19:38:08.494Z," 3.55"
2018-01-16T19:43:04.382Z," 3.60"
2018-01-16T19:47:59.959Z," 3.68"
2018-01-16T19:52:56.382Z," 3.65"
2018-01-16T19:57:54.036Z," 3.48"
2018-01-16T20:02:49.168Z," 3.31"
2018-01-16T20:07:44.682Z," 3.36"
2018-01-16T20:12:41.362Z," 3.36"
2018-01-16T20:17:38.941Z," 3.44"
2018-01-16T20:22:34.949Z," 3.45"
2018-01-16T20:27:31.705Z," 3.41"
2018-01-16T20:32:27.968Z," 3.32"
2018-01-16T20:37:23.661Z," 3.21"
2018-01-16T20:42:19.236Z," 3.21"
2018-01-16T20:47:14.741Z," 3.18"
2018-01-16T20:52:11.479Z," 3.26"
2018-01-16T20:57:06.930Z," 3.26"
2018-01-16T21:02:03.582Z," 3.21"
2018-01-16T21:06:59.734Z," 3.28"
2018-01-16T21:11:55.500Z," 3.36"
2018-01-16T21:16:51.582Z," 3.37"
2018-01-16T21:21:49.651Z," 3.34"
2018-01-16T21:26:45.019Z," 3.22"
2018-01-16T21:31:40.895Z," 3.28"
2018-01-16T21:36:37.195Z," 3.34"
2018-01-16T21:41:33.813Z," 3.41"
2018-01-16T21:46:30.172Z," 3.40"
2018-01-16T21:51:26.958Z," 3.34"
2018-01-16T21:56:22.279Z," 3.37"
2018-01-16T22:01:18.252Z," 3.47"
2018-01-16T22:06:14.037Z," 3.47"
2018-01-16T22:11:09.651Z," 3.37"
2018-01-16T22:16:05.168Z," 3.32"
2018-01-16T22:21:01.814Z," 3.47"
2018-01-16T22:25:57.859Z," 3.36"
2018-01-16T22:30:53.204Z," 3.44"
2018-01-16T22:35:49.694Z," 3.55"
2018-01-16T22:40:46.355Z," 3.60"
2018-01-16T22:45:41.859Z," 3.62"
2018-01-16T22:50:37.454Z," 3.58"
2018-01-16T22:55:34.387Z," 3.70"
2018-01-16T23:00:30.995Z," 3.84"
2018-01-16T23:05:27.467Z," 3.73"
2018-01-16T23:10:22.475Z," 3.53"
2018-01-16T23:15:18.551Z," 3.34"
2018-01-16T23:20:15.044Z," 3.25"
2018-01-16T23:25:11.227Z," 3.18"
2018-01-16T23:30:07.850Z," 3.16"
2018-01-16T23:35:03.038Z," 3.08"
2018-01-16T23:39:58.618Z," 3.19"
2018-01-16T23:44:54.249Z," 3.01"
2018-01-16T23:49:49.922Z," 3.14"
2018-01-16T23:54:45.552Z," 3.03"
2018-01-16T23:59:41.343Z," 3.23"
